Time;durP1;ratioP1;P1;durP2;ratioP2;P2;SDS_P1;SDS_P2;PMS_P1;PMS_P2;Temp;Humidity;BMP_temperature;BMP_pressure;BME280_temperature;BME280_humidity;BME280_pressure;Samples;Min_cycle;Max_cycle;Signal;HPM_P1;HPM_P2
2023/01/09 00:01:32;;;;;;;3.00;1.98;;;;;;;18.18;48.69;99271.53;5024413;28;20045;-51
2023/01/09 00:03:58;;;;;;;3.78;2.22;;;;;;;18.15;48.49;99267.41;5024648;28;20050;-52
2023/01/09 00:06:23;;;;;;;4.55;2.00;;;;;;;18.17;48.53;99267.19;5024627;28;20049;-55
2023/01/09 00:08:48;;;;;;;4.30;2.42;;;;;;;18.16;48.64;99244.84;5023722;28;20021;-54
2023/01/09 00:11:14;;;;;;;3.45;2.10;;;;;;;18.16;48.09;99244.84;5024797;28;20026;-54
2023/01/09 00:13:39;;;;;;;3.35;2.00;;;;;;;18.12;48.62;99240.91;5024866;28;20030;-54
2023/01/09 00:16:06;;;;;;;3.00;2.05;;;;;;;18.14;48.74;99240.72;5024621;28;20034;-53
2023/01/09 00:18:31;;;;;;;2.13;1.60;;;;;;;18.13;48.87;99245.25;5024185;28;20030;-53
2023/01/09 00:21:01;;;;;;;2.53;1.80;;;;;;;18.12;48.56;99251.66;5024595;28;20030;-51
2023/01/09 00:23:26;;;;;;;4.25;1.92;;;;;;;18.11;48.52;99247.31;5023860;28;20109;-55
2023/01/09 00:26:01;;;;;;;3.80;1.90;;;;;;;18.13;48.81;99264.06;5024507;28;20056;-54
2023/01/09 00:28:26;;;;;;;3.30;1.80;;;;;;;18.11;48.43;99259.94;5024308;28;20034;-56
2023/01/09 00:30:58;;;;;;;2.63;1.90;;;;;;;18.09;48.58;99265.50;5024244;28;20344;-54
2023/01/09 00:34:04;;;;;;;2.83;1.80;;;;;;;18.10;48.52;99269.88;5024273;28;20076;-55
2023/01/09 00:36:30;;;;;;;3.45;2.08;;;;;;;18.11;48.46;99270.69;5004478;28;20130;-54
2023/01/09 00:38:55;;;;;;;2.53;1.80;;;;;;;18.09;48.81;99262.81;5023150;28;20034;-54
2023/01/09 00:41:30;;;;;;;4.47;1.90;;;;;;;18.09;48.96;99265.50;5024732;28;20033;-53
2023/01/09 00:44:02;;;;;;;3.03;1.73;;;;;;;18.07;48.83;99267.59;5024380;28;20048;-54
2023/01/09 00:46:31;;;;;;;2.67;1.65;;;;;;;18.06;48.74;99271.31;5006666;28;20049;-53
2023/01/09 00:48:56;;;;;;;3.00;1.85;;;;;;;18.07;48.63;99269.44;5006377;28;20034;-53
2023/01/09 00:51:23;;;;;;;2.88;2.00;;;;;;;18.06;48.59;99275.88;5024317;28;20040;-49
2023/01/09 00:53:49;;;;;;;2.72;1.73;;;;;;;18.05;48.80;99282.25;5006682;28;20056;-53
2023/01/09 00:56:17;;;;;;;2.38;1.70;;;;;;;18.05;48.61;99271.50;5027631;28;20025;-53
2023/01/09 00:58:43;;;;;;;2.17;1.50;;;;;;;18.05;48.88;99271.50;5027422;28;20065;-53
2023/01/09 01:01:08;;;;;;;2.13;1.55;;;;;;;18.04;48.54;99272.53;5027628;28;20093;-52
2023/01/09 01:03:34;;;;;;;2.70;1.70;;;;;;;17.98;48.81;99260.75;5027365;28;20533;-53
2023/01/09 01:08:44;;;;;;;2.30;1.70;;;;;;;17.94;48.74;99271.06;5027091;28;20040;-52
2023/01/09 01:11:11;;;;;;;3.28;1.85;;;;;;;18.01;48.50;99281.84;5027440;28;20098;-52
2023/01/09 01:13:37;;;;;;;3.13;1.95;;;;;;;17.99;48.54;99273.97;5027465;28;20051;-50
2023/01/09 01:16:04;;;;;;;2.38;1.30;;;;;;;17.96;48.79;99270.84;5026909;28;20029;-52
2023/01/09 01:18:29;;;;;;;3.55;1.52;;;;;;;17.97;48.56;99277.91;5027096;28;20030;-55
2023/01/09 01:20:54;;;;;;;1.77;1.42;;;;;;;17.99;48.68;99283.91;5027477;28;20446;-55
2023/01/09 01:23:20;;;;;;;2.63;1.40;;;;;;;17.98;48.79;99290.31;5027061;28;20040;-53
2023/01/09 01:25:45;;;;;;;2.75;1.88;;;;;;;17.92;48.70;99280.34;5027351;28;20026;-51
2023/01/09 01:28:10;;;;;;;1.98;1.58;;;;;;;17.96;48.79;99293.19;5027340;28;20025;-56
2023/01/09 01:30:39;;;;;;;1.40;1.30;;;;;;;17.94;48.57;99297.94;5026678;28;20022;-56
2023/01/09 01:33:04;;;;;;;;;;;;;;;17.97;48.69;99299.41;5027312;28;20041;-51
2023/01/09 01:35:30;;;;;;;1.88;1.50;;;;;;;17.95;48.68;99302.28;5023408;28;19910;-54
2023/01/09 01:37:55;;;;;;;2.03;1.58;;;;;;;17.94;48.77;99299.81;5026878;28;20514;-55
2023/01/09 01:40:20;;;;;;;1.75;1.48;;;;;;;17.92;48.83;99304.56;5026818;28;20022;-55
2023/01/09 01:42:51;;;;;;;1.88;1.30;;;;;;;17.89;48.65;99299.59;5026612;28;20085;-55
2023/01/09 01:45:18;;;;;;;1.73;1.30;;;;;;;17.85;48.67;99299.16;5026490;28;20029;-55
2023/01/09 01:48:02;;;;;;;1.80;1.40;;;;;;;17.90;48.69;99301.25;5026570;28;20034;-53
2023/01/09 01:50:46;;;;;;;2.33;1.55;;;;;;;17.89;48.92;99305.81;5026757;28;20056;-50
2023/01/09 01:53:32;;;;;;;2.15;1.50;;;;;;;17.89;48.69;99313.03;5009213;28;20034;-54
2023/01/09 01:56:15;;;;;;;2.58;1.63;;;;;;;17.88;48.59;99308.66;5025671;28;20046;-53
2023/01/09 01:58:47;;;;;;;1.75;1.40;;;;;;;17.88;48.51;99319.41;5026449;28;20065;-55
2023/01/09 02:01:13;;;;;;;2.10;1.25;;;;;;;17.86;48.69;99316.94;5026688;28;20038;-53
2023/01/09 02:03:39;;;;;;;1.80;1.20;;;;;;;17.87;48.86;99318.59;5008103;28;20033;-54
2023/01/09 02:06:05;;;;;;;2.05;1.45;;;;;;;17.86;48.59;99316.94;5025312;28;20052;-55
2023/01/09 02:08:30;;;;;;;1.85;1.20;;;;;;;17.80;48.92;99309.69;5026243;28;20026;-54
2023/01/09 02:10:56;;;;;;;1.77;1.30;;;;;;;17.85;48.53;99322.53;5026468;28;20085;-54
2023/01/09 02:13:21;;;;;;;2.22;1.55;;;;;;;17.84;48.53;99319.03;5025998;28;20041;-54
2023/01/09 02:16:23;;;;;;;1.70;1.13;;;;;;;17.85;48.68;99322.53;5026140;28;20029;-53
2023/01/09 02:18:53;;;;;;;2.08;1.17;;;;;;;17.78;48.67;99316.28;5026246;28;20026;-51
2023/01/09 02:21:49;;;;;;;2.42;1.55;;;;;;;17.83;48.60;99324.56;5008818;28;20041;-53
2023/01/09 02:24:41;;;;;;;1.33;1.10;;;;;;;17.80;48.43;99317.75;5008449;28;20075;-52
2023/01/09 02:27:17;;;;;;;1.45;1.30;;;;;;;17.81;48.86;99318.59;5006809;28;20118;-54
2023/01/09 02:29:58;;;;;;;1.42;1.30;;;;;;;17.80;48.57;99320.44;5005297;28;20077;-50
2023/01/09 02:32:30;;;;;;;1.60;1.20;;;;;;;17.79;48.57;99310.69;5005389;28;20217;-54
2023/01/09 02:35:16;;;;;;;1.75;1.20;;;;;;;17.78;48.77;99313.59;5020326;28;20073;-52
2023/01/09 02:37:48;;;;;;;2.17;1.40;;;;;;;17.77;48.77;99311.94;5025506;28;20061;-54
2023/01/09 02:40:27;;;;;;;1.42;1.30;;;;;;;17.76;48.79;99319.19;5025557;28;20029;-53
2023/01/09 02:42:54;;;;;;;1.63;1.42;;;;;;;17.74;48.74;99323.91;5008192;28;20080;-54
2023/01/09 02:45:19;;;;;;;1.58;1.35;;;;;;;17.74;48.88;99323.91;5008149;28;20093;-54
2023/01/09 02:47:45;;;;;;;1.70;1.40;;;;;;;17.73;48.80;99325.75;5025694;28;20068;-53
2023/01/09 02:50:17;;;;;;;1.63;1.35;;;;;;;17.72;48.80;99334.84;5025493;28;20040;-55
2023/01/09 02:53:00;;;;;;;1.60;1.02;;;;;;;17.72;48.62;99339.41;5008120;28;20431;-53
2023/01/09 02:56:03;;;;;;;1.90;1.35;;;;;;;17.71;48.71;99338.56;5025598;28;20085;-53
2023/01/09 02:58:34;;;;;;;2.88;1.55;;;;;;;17.71;48.63;99335.88;5025391;28;20050;-52
2023/01/09 03:01:00;;;;;;;1.98;1.25;;;;;;;17.70;48.59;99341.44;5025695;28;20030;-54
2023/01/09 03:03:46;;;;;;;1.70;1.35;;;;;;;17.67;48.79;99345.38;5025389;28;20105;-54
2023/01/09 03:06:31;;;;;;;2.63;1.40;;;;;;;17.67;48.62;99345.38;5007510;28;20479;-53
2023/01/09 03:09:01;;;;;;;1.20;1.10;;;;;;;17.68;48.60;99360.47;5025463;28;20025;-56
2023/01/09 03:11:30;;;;;;;1.52;1.20;;;;;;;17.61;48.58;99335.41;5007773;28;20032;-56
2023/01/09 03:14:02;;;;;;;2.13;1.20;;;;;;;17.66;48.68;99341.00;5007722;28;20116;-51
2023/01/09 03:16:31;;;;;;;1.15;1.05;;;;;;;17.65;48.78;99346.59;5007760;28;20034;-54
2023/01/09 03:18:58;;;;;;;2.30;1.13;;;;;;;17.60;48.76;99327.53;5007424;28;20038;-52
2023/01/09 03:21:24;;;;;;;2.53;1.52;;;;;;;17.64;48.75;99337.69;5007513;28;20527;-54
2023/01/09 03:23:55;;;;;;;1.73;1.10;;;;;;;17.64;48.60;99335.00;5024935;28;20028;-54
2023/01/09 03:26:21;;;;;;;1.83;1.27;;;;;;;17.63;48.70;99327.16;5024986;28;20018;-52
2023/01/09 03:28:47;;;;;;;2.47;1.55;;;;;;;17.63;48.72;99332.53;5024891;28;20026;-54
2023/01/09 03:31:13;;;;;;;1.30;1.02;;;;;;;17.62;48.48;99328.16;5023867;28;20041;-52
2023/01/09 03:33:38;;;;;;;1.75;1.27;;;;;;;17.60;48.91;99320.31;5024448;28;20029;-53
2023/01/09 03:36:04;;;;;;;1.80;1.33;;;;;;;17.60;48.75;99333.75;5024674;28;20410;-54
2023/01/09 03:38:29;;;;;;;2.55;1.30;;;;;;;17.57;48.78;99336.00;5024964;28;20030;-52
2023/01/09 03:40:55;;;;;;;2.20;1.73;;;;;;;17.59;48.61;99350.06;5024722;28;20033;-53
2023/01/09 03:43:20;;;;;;;2.58;1.60;;;;;;;17.57;48.73;99344.88;5024597;28;20161;-53
2023/01/09 03:45:45;;;;;;;2.65;1.40;;;;;;;17.57;48.82;99342.19;5024507;28;20025;-55
2023/01/09 03:48:10;;;;;;;1.42;1.10;;;;;;;17.56;48.79;99345.91;5024703;28;20085;-54
2023/01/09 03:50:36;;;;;;;1.20;1.00;;;;;;;17.55;48.58;99352.31;5024595;28;20034;-54
2023/01/09 03:53:01;;;;;;;1.60;1.20;;;;;;;17.55;48.87;99340.75;5024409;28;20394;-53
2023/01/09 03:55:26;;;;;;;1.42;1.15;;;;;;;17.54;48.88;99341.75;5024650;28;20033;-53
2023/01/09 03:57:52;;;;;;;2.30;1.20;;;;;;;17.47;48.64;99333.66;5024611;28;20025;-52
2023/01/09 04:00:20;;;;;;;1.20;1.10;;;;;;;17.53;49.03;99343.63;5024972;28;20098;-53
2023/01/09 04:02:45;;;;;;;1.48;1.30;;;;;;;17.52;48.77;99339.28;5024521;28;20030;-55
2023/01/09 04:05:11;;;;;;;1.27;1.10;;;;;;;17.52;48.82;99346.50;5006867;28;20057;-52
2023/01/09 04:07:36;;;;;;;2.58;1.30;;;;;;;17.49;48.62;99343.19;5024695;28;20021;-54
2023/01/09 04:10:02;;;;;;;1.38;1.10;;;;;;;17.50;48.60;99341.34;5024287;28;20045;-52
2023/01/09 04:12:28;;;;;;;1.50;1.20;;;;;;;17.48;48.62;99349.59;5024705;28;20102;-53
2023/01/09 04:14:53;;;;;;;1.23;1.02;;;;;;;17.47;48.60;99342.56;5024575;28;20093;-54
2023/01/09 04:17:18;;;;;;;1.33;1.10;;;;;;;17.47;48.62;99352.47;5024457;28;20018;-54
2023/01/09 04:19:43;;;;;;;1.38;1.23;;;;;;;17.46;48.76;99348.97;5024200;28;20669;-53
2023/01/09 04:22:09;;;;;;;2.55;1.10;;;;;;;17.45;48.73;99341.09;5024638;28;20096;-51
2023/01/09 04:24:34;;;;;;;3.28;2.13;;;;;;;17.44;48.93;99344.81;5024274;28;20034;-54
2023/01/09 04:26:59;;;;;;;1.60;1.42;;;;;;;17.43;48.80;99343.97;5024430;28;20025;-50
2023/01/09 04:29:24;;;;;;;2.25;1.30;;;;;;;17.42;48.91;99353.06;5025176;28;20049;-52
2023/01/09 04:31:50;;;;;;;1.90;1.10;;;;;;;17.41;48.95;99362.13;5028209;28;20034;-53
2023/01/09 04:34:15;;;;;;;0.95;0.95;;;;;;;17.37;48.84;99350.13;5027802;28;20022;-53
2023/01/09 04:36:41;;;;;;;2.60;1.30;;;;;;;17.41;49.00;99372.06;5027650;28;20046;-55
2023/01/09 04:39:07;;;;;;;1.27;1.15;;;;;;;17.36;48.95;99367.28;5027971;28;20108;-56
2023/01/09 04:41:47;;;;;;;1.20;1.10;;;;;;;17.39;48.65;99374.94;5028359;28;20033;-54
2023/01/09 04:44:14;;;;;;;1.20;1.10;;;;;;;17.38;48.69;99375.97;5028202;28;20033;-55
2023/01/09 04:46:39;;;;;;;1.58;1.15;;;;;;;17.38;48.92;99369.78;5027997;28;20029;-53
2023/01/09 04:49:04;;;;;;;1.38;1.05;;;;;;;17.39;48.87;99383.00;5027624;28;20045;-56
2023/01/09 04:51:29;;;;;;;1.30;1.10;;;;;;;17.39;49.00;99383.00;5028089;28;20033;-56
2023/01/09 04:53:55;;;;;;;1.58;1.20;;;;;;;17.38;49.06;99377.84;5027832;28;20390;-54
2023/01/09 04:56:20;;;;;;;1.33;1.20;;;;;;;17.25;48.80;99357.09;5027964;28;20080;-56
2023/01/09 04:58:45;;;;;;;5.47;2.45;;;;;;;17.38;48.64;99378.66;5027300;28;20026;-55
2023/01/09 05:01:10;;;;;;;1.45;1.20;;;;;;;17.38;48.66;99377.84;5027755;28;20089;-57
2023/01/09 05:03:36;;;;;;;1.75;1.00;;;;;;;17.37;48.91;99374.28;5027573;28;20091;-56
2023/01/09 05:06:01;;;;;;;1.65;1.17;;;;;;;17.37;48.91;99371.63;5026669;28;20028;-54
2023/01/09 05:08:26;;;;;;;1.40;1.30;;;;;;;17.38;49.02;99367.91;5027037;28;20033;-55
2023/01/09 05:10:51;;;;;;;1.58;1.20;;;;;;;17.38;49.11;99370.59;5024142;28;20029;-55
2023/01/09 05:13:17;;;;;;;1.23;1.13;;;;;;;17.38;48.89;99373.28;5022175;28;20026;-56
2023/01/09 05:15:42;;;;;;;1.20;1.10;;;;;;;17.38;49.03;99367.91;5025671;28;20026;-54
2023/01/09 05:18:07;;;;;;;2.42;1.48;;;;;;;17.33;48.85;99361.47;5026964;28;20013;-55
2023/01/09 05:20:33;;;;;;;1.80;1.40;;;;;;;17.39;49.03;99376.81;5026912;28;20022;-55
2023/01/09 05:22:58;;;;;;;1.92;1.20;;;;;;;17.37;48.88;99379.66;5026565;28;20025;-55
2023/01/09 05:25:23;;;;;;;3.75;1.10;;;;;;;17.39;48.76;99382.19;5026987;28;20037;-56
2023/01/09 05:27:48;;;;;;;2.03;1.20;;;;;;;17.37;48.98;99381.53;5026684;28;20085;-55
2023/01/09 05:30:14;;;;;;;1.27;1.17;;;;;;;17.39;48.98;99384.88;5023661;28;20100;-56
2023/01/09 05:32:39;;;;;;;1.63;1.38;;;;;;;17.39;49.28;99385.69;5026579;28;20114;-53
2023/01/09 05:35:05;;;;;;;3.65;1.50;;;;;;;17.39;49.29;99374.13;5023396;28;20030;-56
2023/01/09 05:37:30;;;;;;;1.75;1.45;;;;;;;17.42;49.07;99387.16;5026476;28;20045;-56
2023/01/09 05:39:55;;;;;;;1.33;1.08;;;;;;;17.43;49.17;99380.75;5026371;28;20033;-56
2023/01/09 05:42:21;;;;;;;1.50;1.30;;;;;;;17.42;49.33;99381.81;5026601;28;20038;-54
2023/01/09 05:44:46;;;;;;;1.65;1.30;;;;;;;17.43;49.32;99386.97;5026292;28;20060;-56
2023/01/09 05:47:11;;;;;;;1.30;1.08;;;;;;;17.38;49.29;99367.91;5026677;28;20022;-52
2023/01/09 05:49:36;;;;;;;2.92;1.20;;;;;;;17.43;49.28;99372.69;5026273;28;20029;-52
2023/01/09 05:52:02;;;;;;;2.45;1.23;;;;;;;17.43;49.51;99376.22;5026300;28;20463;-52
2023/01/09 05:54:27;;;;;;;1.42;1.00;;;;;;;17.41;49.30;99367.50;5026338;28;20205;-54
2023/01/09 05:56:52;;;;;;;2.28;1.30;;;;;;;17.43;49.26;99368.16;5026022;28;20497;-52
2023/01/09 05:59:18;;;;;;;1.45;1.10;;;;;;;17.44;49.46;99375.19;5025888;28;20071;-54
2023/01/09 06:01:43;;;;;;;1.38;1.10;;;;;;;17.46;49.37;99380.38;5025885;28;20022;-55
2023/01/09 06:04:09;;;;;;;3.28;1.80;;;;;;;17.45;49.58;99376.00;5025645;28;20833;-55
2023/01/09 06:06:34;;;;;;;1.48;1.10;;;;;;;17.45;49.48;99378.69;5025391;28;20032;-53
2023/01/09 06:08:59;;;;;;;1.92;1.10;;;;;;;17.45;49.71;99376.84;5025304;28;20037;-50
2023/01/09 06:11:24;;;;;;;2.38;1.30;;;;;;;17.45;49.34;99363.41;5026005;28;20174;-52
2023/01/09 06:13:50;;;;;;;1.65;1.10;;;;;;;17.46;49.74;99366.94;5025474;28;20414;-54
2023/01/09 06:16:15;;;;;;;2.05;1.13;;;;;;;17.48;49.41;99370.25;5025738;28;20121;-54
2023/01/09 06:18:40;;;;;;;1.20;1.05;;;;;;;17.47;49.50;99369.44;5025943;28;20024;-54
2023/01/09 06:21:05;;;;;;;1.75;1.30;;;;;;;17.48;49.44;99373.78;5025649;28;20052;-55
2023/01/09 06:23:31;;;;;;;1.20;1.10;;;;;;;17.47;49.70;99366.75;5025173;28;20383;-52
2023/01/09 06:25:56;;;;;;;2.17;1.25;;;;;;;17.47;49.70;99372.13;5008295;28;20028;-56
2023/01/09 06:28:21;;;;;;;1.10;0.90;;;;;;;17.48;49.51;99371.06;5025434;28;20094;-53
2023/01/09 06:30:51;;;;;;;1.13;0.90;;;;;;;17.49;49.76;99364.66;5024820;28;20034;-52
2023/01/09 06:33:16;;;;;;;1.30;1.10;;;;;;;17.45;49.58;99362.56;5025709;28;20029;-54
2023/01/09 06:35:41;;;;;;;3.05;1.40;;;;;;;17.49;49.48;99370.03;5024121;28;20064;-52
2023/01/09 06:38:07;;;;;;;1.92;1.77;;;;;;;17.50;49.43;99373.59;5024590;28;20042;-54
2023/01/09 06:40:32;;;;;;;1.92;1.05;;;;;;;17.52;49.75;99378.75;5025611;28;20029;-52
2023/01/09 06:42:57;;;;;;;1.52;1.20;;;;;;;17.52;49.60;99370.69;5025500;28;20025;-55
2023/01/09 06:45:22;;;;;;;2.08;1.08;;;;;;;17.52;49.78;99368.84;5007200;28;20445;-52
2023/01/09 06:47:48;;;;;;;2.40;1.23;;;;;;;17.52;49.78;99371.53;5025118;28;20033;-54
2023/01/09 06:50:14;;;;;;;1.52;1.10;;;;;;;17.53;49.38;99366.97;5025754;28;20022;-52
2023/01/09 06:52:39;;;;;;;1.58;1.17;;;;;;;17.50;49.77;99370.91;5024919;28;20022;-53
2023/01/09 06:55:05;;;;;;;2.03;1.33;;;;;;;17.54;49.59;99372.13;5025463;28;20486;-54
2023/01/09 06:57:31;;;;;;;1.30;1.00;;;;;;;17.56;49.47;99377.34;5025116;28;20045;-53
2023/01/09 06:59:56;;;;;;;1.48;1.05;;;;;;;17.55;49.65;99378.38;5025329;28;20018;-52
2023/01/09 07:02:22;;;;;;;1.60;1.05;;;;;;;17.55;49.61;99378.38;5025265;28;20085;-53
2023/01/09 07:04:47;;;;;;;2.00;1.27;;;;;;;17.55;49.44;99381.88;5007325;28;20033;-52
2023/01/09 07:07:13;;;;;;;1.50;1.10;;;;;;;17.50;49.73;99368.22;5025182;28;20021;-54
2023/01/09 07:09:38;;;;;;;1.77;1.10;;;;;;;17.55;49.44;99375.69;5024994;28;20026;-48
2023/01/09 07:12:03;;;;;;;1.95;1.30;;;;;;;17.57;49.79;99370.94;5025140;28;20022;-51
2023/01/09 07:14:29;;;;;;;1.27;1.08;;;;;;;17.57;49.62;99371.75;5025096;28;20022;-49
2023/01/09 07:16:55;;;;;;;2.50;1.20;;;;;;;17.57;49.72;99366.38;5024944;28;20030;-53
2023/01/09 07:19:20;;;;;;;1.75;1.08;;;;;;;17.58;49.75;99362.66;5024725;28;20092;-51
2023/01/09 07:21:45;;;;;;;2.35;1.30;;;;;;;17.59;49.64;99371.56;5024615;28;20034;-55
2023/01/09 07:24:10;;;;;;;1.73;1.40;;;;;;;17.59;49.61;99361.66;5025147;28;20034;-50
2023/01/09 07:26:36;;;;;;;0.98;0.90;;;;;;;17.59;49.64;99361.66;5024018;28;20025;-53
2023/01/09 07:29:01;;;;;;;1.75;1.40;;;;;;;17.60;49.53;99366.00;5024839;28;20029;-52
2023/01/09 07:31:26;;;;;;;2.42;1.10;;;;;;;17.60;49.68;99370.53;5022467;28;20056;-51
2023/01/09 07:33:52;;;;;;;2.05;1.15;;;;;;;17.61;49.67;99367.66;5024401;28;20072;-51
2023/01/09 07:36:17;;;;;;;1.83;1.05;;;;;;;17.61;49.51;99374.88;5024390;28;20026;-52
2023/01/09 07:38:42;;;;;;;2.20;1.10;;;;;;;17.61;49.70;99370.34;5024573;28;20053;-50
2023/01/09 07:41:08;;;;;;;2.85;1.55;;;;;;;17.62;49.42;99365.78;5024775;28;20037;-52
2023/01/09 07:43:33;;;;;;;1.35;0.88;;;;;;;17.62;49.61;99368.47;5022102;28;20383;-54
2023/01/09 07:45:58;;;;;;;1.25;0.95;;;;;;;17.60;49.42;99373.22;5024577;28;20021;-53
2023/01/09 07:48:23;;;;;;;5.88;1.85;;;;;;;17.63;49.42;99378.22;5025045;28;20056;-56
2023/01/09 07:50:49;;;;;;;1.63;1.00;;;;;;;17.68;49.06;99370.38;5024709;28;20033;-53
2023/01/09 07:53:14;;;;;;;1.67;1.00;;;;;;;17.73;49.06;99376.81;5025044;28;20025;-51
2023/01/09 07:55:41;;;;;;;1.23;0.80;;;;;;;17.80;48.92;99384.09;5024842;28;20032;-53
2023/01/09 07:58:06;;;;;;;2.42;1.00;;;;;;;17.85;48.54;99376.31;5024531;28;20434;-53
2023/01/09 08:00:32;;;;;;;3.95;1.23;;;;;;;17.89;48.57;99383.78;5024884;28;20052;-50
2023/01/09 08:02:57;;;;;;;1.42;1.10;;;;;;;17.92;48.75;99391.41;5024876;28;20033;-51
2023/01/09 08:05:22;;;;;;;2.47;1.17;;;;;;;17.93;48.21;99393.09;5027037;28;20032;-53
2023/01/09 08:07:49;;;;;;;1.73;1.00;;;;;;;17.95;48.32;99393.72;5028663;28;20030;-50
2023/01/09 08:10:18;;;;;;;2.80;0.88;;;;;;;17.96;48.53;99391.84;5026998;28;20089;-46
2023/01/09 08:12:43;;;;;;;2.85;1.20;;;;;;;17.88;48.64;99382.13;5008567;28;20052;-48
2023/01/09 08:15:09;;;;;;;1.10;1.00;;;;;;;17.92;48.81;99395.97;5011951;28;20368;-49
2023/01/09 08:17:35;;;;;;;2.55;1.13;;;;;;;17.90;49.04;99385.44;5019040;28;20030;-48
2023/01/09 08:20:00;;;;;;;1.20;0.90;;;;;;;17.91;48.75;99391.63;4998035;28;20037;-48
2023/01/09 08:22:26;;;;;;;2.25;1.00;;;;;;;17.92;49.15;99387.91;5025814;28;20109;-45
2023/01/09 08:24:51;;;;;;;7.93;2.20;;;;;;;17.93;48.80;99394.97;5023828;28;20049;-44
2023/01/09 08:27:16;;;;;;;2.15;1.10;;;;;;;17.90;49.08;99380.03;5015141;28;20737;-48
2023/01/09 08:29:41;;;;;;;2.40;1.40;;;;;;;17.94;49.12;99375.94;4999024;28;20032;-48
2023/01/09 08:32:07;;;;;;;2.25;0.95;;;;;;;17.93;48.89;99385.03;5023821;28;20036;-55
2023/01/09 08:34:32;;;;;;;2.60;1.23;;;;;;;17.95;48.98;99379.44;5027885;28;20029;-54
2023/01/09 08:36:58;;;;;;;1.85;0.93;;;;;;;17.97;48.94;99385.47;5023501;28;20040;-52
2023/01/09 08:39:23;;;;;;;1.83;1.13;;;;;;;18.00;48.86;99390.44;5015935;28;20022;-56
2023/01/09 08:47:19;;;;;;;2.10;1.75;;;;;;;18.03;48.98;99390.03;5020827;28;20041;-52
2023/01/09 08:49:45;;;;;;;2.42;1.10;;;;;;;17.96;48.72;99387.31;5021963;28;20029;-57
2023/01/09 08:52:11;;;;;;;2.63;1.02;;;;;;;18.04;48.95;99391.69;5026723;28;20034;-47
2023/01/09 08:54:37;;;;;;;2.67;0.80;;;;;;;18.07;48.68;99402.06;5024687;28;20037;-52
2023/01/09 08:57:03;;;;;;;2.88;1.15;;;;;;;17.99;48.38;99389.59;5024114;28;20033;-54
2023/01/09 08:59:28;;;;;;;2.05;1.13;;;;;;;18.03;48.33;99391.91;5018402;28;20032;-53
2023/01/09 09:01:53;;;;;;;4.28;1.33;;;;;;;18.11;48.25;99400.63;5021415;28;20053;-46
2023/01/09 09:04:19;;;;;;;1.48;0.90;;;;;;;18.08;48.38;99390.25;5011126;28;20049;-51
2023/01/09 09:06:44;;;;;;;1.75;0.90;;;;;;;18.11;48.53;99389.03;5020738;28;20026;-49
2023/01/09 09:09:10;;;;;;;3.33;1.20;;;;;;;18.06;48.67;99399.59;5018004;28;20398;-55
2023/01/09 09:11:35;;;;;;;3.00;1.13;;;;;;;18.10;48.84;99401.66;5009335;28;20049;-52
2023/01/09 09:15:11;;;;;;;2.53;1.13;;;;;;;18.12;48.81;99399.59;5020001;28;20027;-49
2023/01/09 09:16:46;;;;;;;2.67;0.93;;;;;;;18.15;48.49;99404.59;5016317;28;20044;-55
2023/01/09 09:19:11;;;;;;;3.08;1.08;;;;;;;18.15;48.74;99401.06;5022830;28;20124;-54
2023/01/09 09:21:37;;;;;;;3.35;1.10;;;;;;;18.13;48.62;99397.72;5011165;28;20041;-52
2023/01/09 09:24:02;;;;;;;1.65;0.90;;;;;;;18.16;48.62;99406.22;5011589;28;20026;-53
2023/01/09 09:26:27;;;;;;;1.25;1.08;;;;;;;18.17;48.99;99410.56;5021173;28;20030;-54
2023/01/09 09:28:52;;;;;;;2.50;1.00;;;;;;;18.19;48.63;99424.69;5016088;28;20034;-55
2023/01/09 09:31:18;;;;;;;2.05;0.88;;;;;;;18.19;48.98;99413.91;5011379;28;20503;-55
2023/01/09 09:33:43;;;;;;;1.42;1.20;;;;;;;18.19;48.66;99411.22;5024238;28;20034;-50
2023/01/09 09:36:08;;;;;;;1.40;0.90;;;;;;;18.21;48.69;99419.91;5021651;28;20137;-53
2023/01/09 09:38:33;;;;;;;1.90;1.15;;;;;;;18.21;49.04;99419.91;5015239;28;20030;-51
2023/01/09 09:47:36;;;;;;;1.75;1.00;;;;;;;18.14;49.13;99410.19;5014120;28;20065;-57
2023/01/09 09:50:18;;;;;;;2.55;1.00;;;;;;;18.24;48.81;99430.28;5016284;28;20410;-53
2023/01/09 09:52:56;;;;;;;1.13;0.90;;;;;;;18.24;49.00;99419.53;5008658;28;20041;-57
2023/01/09 09:55:30;;;;;;;1.20;0.90;;;;;;;18.23;48.90;99436.69;5011592;28;20026;-59
2023/01/09 09:57:57;;;;;;;1.50;0.90;;;;;;;18.26;48.99;99440.00;5022982;28;20018;-53
2023/01/09 10:00:22;;;;;;;1.15;0.93;;;;;;;18.25;48.93;99449.94;4993833;28;20030;-53
2023/01/09 10:02:52;;;;;;;3.00;1.05;;;;;;;18.28;48.88;99451.41;5016320;28;20099;-57
2023/01/09 10:05:23;;;;;;;2.13;1.00;;;;;;;18.28;48.88;99454.09;5010572;28;20055;-54
2023/01/09 10:07:49;;;;;;;1.45;0.82;;;;;;;18.26;49.04;99453.44;5006886;28;20014;-50
2023/01/09 10:10:26;;;;;;;2.13;0.90;;;;;;;18.25;48.87;99468.78;5020353;28;20022;-54
2023/01/09 10:12:57;;;;;;;1.15;0.90;;;;;;;18.24;48.77;99476.00;5016533;28;20025;-60
2023/01/09 10:15:45;;;;;;;1.98;0.90;;;;;;;18.21;49.01;99475.56;5025027;28;20029;-56
2023/01/09 10:18:20;;;;;;;2.40;0.90;;;;;;;18.18;48.99;99462.50;4989063;28;20026;-56
2023/01/09 10:20:54;;;;;;;2.15;1.05;;;;;;;18.25;49.21;99487.59;4995044;28;20083;-59
2023/01/09 10:23:42;;;;;;;2.22;0.80;;;;;;;18.26;49.16;99491.13;5020568;28;20606;-55
2023/01/09 10:26:20;;;;;;;2.50;0.90;;;;;;;18.27;49.16;99501.69;4996064;28;20041;-52
2023/01/09 10:28:45;;;;;;;2.35;1.05;;;;;;;18.28;49.05;99499.84;4993841;28;20276;-57
2023/01/09 10:31:19;;;;;;;1.10;0.88;;;;;;;18.29;48.82;99510.38;5022966;28;20032;-52
2023/01/09 10:34:09;;;;;;;1.77;0.80;;;;;;;18.30;48.98;99509.34;5008477;28;20399;-54
2023/01/09 10:36:53;;;;;;;1.00;0.90;;;;;;;18.32;48.85;99511.88;5010834;28;20052;-50
2023/01/09 10:39:27;;;;;;;1.85;0.82;;;;;;;18.31;48.65;99510.19;5020154;28;20037;-52
2023/01/09 10:42:01;;;;;;;1.63;0.82;;;;;;;18.37;48.50;99530.94;4989609;28;20109;-53
2023/01/09 10:44:37;;;;;;;2.40;0.85;;;;;;;18.39;48.40;99527.03;5005869;28;20038;-49
2023/01/09 10:47:07;;;;;;;1.23;0.80;;;;;;;18.43;48.64;99536.34;5003176;28;20061;-55
2023/01/09 10:49:33;;;;;;;2.08;0.85;;;;;;;18.43;48.76;99540.88;5002096;28;20034;-53
2023/01/09 10:52:14;;;;;;;1.80;1.10;;;;;;;18.43;48.45;99547.09;5024194;28;20025;-52
2023/01/09 10:54:52;;;;;;;1.40;0.90;;;;;;;18.43;48.47;99554.34;5007736;28;20022;-56
2023/01/09 10:57:42;;;;;;;2.05;0.70;;;;;;;18.46;48.61;99556.66;4990630;28;20030;-49
2023/01/09 11:00:19;;;;;;;1.92;0.85;;;;;;;18.45;48.30;99555.81;5024609;28;20029;-53
2023/01/09 11:02:45;;;;;;;2.45;0.90;;;;;;;18.46;48.38;99562.84;5020210;28;20043;-49
2023/01/09 11:05:14;;;;;;;1.17;0.77;;;;;;;18.46;48.39;99560.16;5024770;28;20030;-55
2023/01/09 11:07:41;;;;;;;1.90;0.80;;;;;;;18.46;48.41;99562.03;5024370;28;20025;-55
2023/01/09 11:10:10;;;;;;;1.73;0.88;;;;;;;18.47;48.56;99575.28;5006955;28;20061;-56
2023/01/09 11:12:36;;;;;;;1.13;0.73;;;;;;;18.46;48.62;99576.31;5024319;28;20475;-52
2023/01/09 11:15:22;;;;;;;1.65;0.70;;;;;;;18.48;48.34;99592.28;5024695;28;20030;-55
2023/01/09 11:17:50;;;;;;;2.13;0.80;;;;;;;18.48;48.10;99598.50;5020092;28;20420;-55
2023/01/09 11:20:18;;;;;;;1.60;0.80;;;;;;;18.45;48.36;99600.75;5016508;28;20034;-54
2023/01/09 11:22:46;;;;;;;1.85;0.75;;;;;;;18.44;48.27;99607.16;5024739;28;20030;-53
2023/01/09 11:25:13;;;;;;;0.98;0.82;;;;;;;18.42;48.50;99618.09;5025130;28;20079;-50
2023/01/09 11:27:38;;;;;;;2.17;0.90;;;;;;;18.42;48.22;99614.59;5024121;28;20049;-53
2023/01/09 11:30:32;;;;;;;1.42;0.90;;;;;;;18.45;48.33;99619.59;5019528;28;20091;-49
2023/01/09 11:32:58;;;;;;;3.40;0.93;;;;;;;18.46;48.28;99622.06;5012685;28;20030;-50
2023/01/09 11:35:34;;;;;;;1.88;0.80;;;;;;;18.45;48.48;99619.59;5015763;28;20053;-51
2023/01/09 11:38:05;;;;;;;2.20;0.90;;;;;;;18.45;48.61;99617.72;5014725;28;20103;-52
2023/01/09 11:40:58;;;;;;;1.15;0.70;;;;;;;18.48;48.74;99625.41;5008766;28;20432;-49
2023/01/09 11:43:29;;;;;;;1.13;0.65;;;;;;;18.46;48.43;99621.25;5002617;28;20038;-48
2023/01/09 11:45:56;;;;;;;0.98;0.70;;;;;;;18.53;48.45;99618.59;5022811;28;20034;-50
2023/01/09 11:48:28;;;;;;;1.38;0.80;;;;;;;18.54;48.19;99622.94;5023750;28;20030;-49
2023/01/09 11:50:55;;;;;;;2.25;0.90;;;;;;;18.54;48.14;99629.16;5024058;28;20029;-54
2023/01/09 11:53:21;;;;;;;1.67;0.70;;;;;;;18.58;48.50;99643.06;5024278;28;20113;-53
2023/01/09 11:55:54;;;;;;;1.05;0.93;;;;;;;18.60;48.06;99643.69;5005483;28;20460;-54